Time;durP1;ratioP1;P1;durP2;ratioP2;P2;SDS_P1;SDS_P2;PMS_P1;PMS_P2;Temp;Humidity;BMP_temperature;BMP_pressure;BME280_temperature;BME280_humidity;BME280_pressure;Samples;Min_cycle;Max_cycle;Signal;HPM_P1;HPM_P2
2023/10/24 00:01:32;;;;;;;8.40;5.47;;;12.70;99.90;;;;;;5035504;28;20458;-54
2023/10/24 00:03:59;;;;;;;8.33;4.47;;;12.70;99.90;;;;;;5036049;28;20557;-56
2023/10/24 00:06:26;;;;;;;6.33;4.50;;;12.70;99.90;;;;;;5035757;28;20535;-57
2023/10/24 00:08:54;;;;;;;7.43;3.90;;;12.80;99.90;;;;;;5035289;28;20793;-55
2023/10/24 00:11:22;;;;;;;7.77;4.20;;;12.80;99.90;;;;;;5035585;28;20465;-56
2023/10/24 00:13:50;;;;;;;8.43;4.10;;;12.80;99.90;;;;;;5035676;28;20470;-56
2023/10/24 00:16:17;;;;;;;8.07;4.87;;;12.80;99.90;;;;;;5035145;28;20492;-56
2023/10/24 00:18:44;;;;;;;7.97;4.73;;;12.80;99.90;;;;;;5034907;28;20828;-57
2023/10/24 00:21:11;;;;;;;7.23;4.90;;;12.80;99.90;;;;;;5035044;28;20468;-56
2023/10/24 00:23:38;;;;;;;9.07;5.80;;;12.80;99.90;;;;;;5035392;28;20467;-56
2023/10/24 00:26:05;;;;;;;5.83;4.60;;;12.80;99.90;;;;;;5035504;28;20436;-58
2023/10/24 00:28:34;;;;;;;10.50;5.13;;;12.80;99.90;;;;;;5035760;28;20554;-56
2023/10/24 00:31:03;;;;;;;6.70;5.40;;;12.80;99.90;;;;;;5035179;28;20516;-55
2023/10/24 00:33:31;;;;;;;7.40;5.13;;;12.80;99.90;;;;;;5035529;28;20762;-57
2023/10/24 00:35:58;;;;;;;8.80;5.37;;;12.80;99.90;;;;;;5034833;28;21021;-57
2023/10/24 00:38:25;;;;;;;7.20;5.50;;;12.80;99.90;;;;;;5035268;28;20461;-56
2023/10/24 00:40:52;;;;;;;9.20;5.40;;;12.80;99.90;;;;;;5034761;28;20471;-57
2023/10/24 00:43:19;;;;;;;8.20;5.10;;;12.70;99.90;;;;;;5035315;28;20765;-57
2023/10/24 00:45:48;;;;;;;6.40;4.93;;;12.80;99.90;;;;;;5035119;28;20549;-57
2023/10/24 00:48:15;;;;;;;8.03;5.00;;;12.70;99.90;;;;;;5035371;28;20554;-56
2023/10/24 00:50:43;;;;;;;6.53;5.17;;;12.70;99.90;;;;;;5035162;28;20524;-56
2023/10/24 00:53:10;;;;;;;6.97;4.97;;;12.70;99.90;;;;;;5033987;28;20459;-58
2023/10/24 00:55:39;;;;;;;6.27;5.17;;;12.70;99.90;;;;;;5034510;28;20491;-57
2023/10/24 00:58:08;;;;;;;9.40;5.10;;;12.70;99.90;;;;;;5035002;28;20817;-57
2023/10/24 01:00:36;;;;;;;7.10;4.77;;;12.80;99.90;;;;;;5034835;28;20761;-56
2023/10/24 01:03:06;;;;;;;10.30;5.57;;;12.80;99.90;;;;;;5034760;28;20464;-57
2023/10/24 01:05:33;;;;;;;6.40;4.67;;;12.80;99.90;;;;;;5034993;28;20455;-57
2023/10/24 01:08:00;;;;;;;7.30;4.60;;;12.70;99.90;;;;;;5034495;28;20574;-56
2023/10/24 01:10:27;;;;;;;7.30;4.63;;;12.70;99.90;;;;;;5035070;28;20459;-56
2023/10/24 01:12:55;;;;;;;5.50;4.43;;;12.70;99.90;;;;;;5034559;28;20459;-57
2023/10/24 01:15:22;;;;;;;9.23;5.07;;;12.70;99.90;;;;;;5034467;28;20459;-58
2023/10/24 01:17:50;;;;;;;6.90;5.30;;;12.70;99.90;;;;;;5034628;28;20901;-57
2023/10/24 01:20:19;;;;;;;6.83;4.33;;;12.70;99.90;;;;;;5034623;28;20459;-57
2023/10/24 01:22:48;;;;;;;7.97;4.57;;;12.70;99.90;;;;;;5034587;28;20549;-57
2023/10/24 01:25:16;;;;;;;5.00;4.50;;;12.70;99.90;;;;;;5034412;28;20499;-56
2023/10/24 01:27:44;;;;;;;7.30;4.60;;;12.70;99.90;;;;;;5034624;28;20762;-57
2023/10/24 01:30:13;;;;;;;11.33;4.43;;;12.70;99.90;;;;;;5034579;28;20575;-57
2023/10/24 01:32:40;;;;;;;6.33;3.73;;;12.70;99.90;;;;;;5034549;28;20466;-57
2023/10/24 01:35:09;;;;;;;4.93;3.50;;;12.70;99.90;;;;;;5034389;28;20800;-57
2023/10/24 01:37:36;;;;;;;7.80;4.07;;;12.70;99.90;;;;;;5033873;28;20495;-57
2023/10/24 01:40:06;;;;;;;5.53;3.70;;;12.70;99.90;;;;;;5034255;28;20472;-57
2023/10/24 01:42:33;;;;;;;7.20;4.13;;;12.70;99.90;;;;;;5034630;28;20509;-57
2023/10/24 01:45:01;;;;;;;4.50;3.97;;;12.70;99.90;;;;;;5034106;28;20459;-58
2023/10/24 01:47:28;;;;;;;7.00;4.00;;;12.70;99.90;;;;;;5034612;28;20455;-57
2023/10/24 01:49:55;;;;;;;5.17;4.17;;;12.70;99.90;;;;;;5034278;28;20879;-57
2023/10/24 01:52:22;;;;;;;7.20;4.37;;;12.70;99.90;;;;;;5034342;28;20466;-57
2023/10/24 01:54:49;;;;;;;5.40;4.20;;;12.70;99.90;;;;;;5034212;28;20884;-57
2023/10/24 01:57:18;;;;;;;5.67;3.97;;;12.70;99.90;;;;;;5033806;28;20587;-57
2023/10/24 01:59:45;;;;;;;5.07;3.57;;;12.70;99.90;;;;;;5034269;28;20823;-58
2023/10/24 02:02:12;;;;;;;7.77;3.53;;;12.60;99.90;;;;;;5034230;28;20466;-57
2023/10/24 02:04:41;;;;;;;6.10;3.97;;;12.70;99.90;;;;;;5034244;28;20463;-57
2023/10/24 02:07:08;;;;;;;5.93;3.60;;;12.70;99.90;;;;;;5033612;28;20527;-57
2023/10/24 02:09:35;;;;;;;6.37;4.50;;;12.70;99.90;;;;;;5034062;28;20512;-56
2023/10/24 02:12:03;;;;;;;7.60;3.90;;;12.70;99.90;;;;;;5036586;28;20467;-58
2023/10/24 02:14:32;;;;;;;5.10;2.90;;;12.70;99.90;;;;;;5036778;28;20459;-58
2023/10/24 02:16:59;;;;;;;6.70;3.20;;;12.70;99.90;;;;;;5037612;28;20495;-57
2023/10/24 02:19:27;;;;;;;6.13;3.53;;;12.70;99.90;;;;;;5037084;28;20459;-57
2023/10/24 02:21:54;;;;;;;7.43;4.00;;;12.70;99.90;;;;;;5037238;28;20570;-57
2023/10/24 02:24:21;;;;;;;5.30;3.80;;;12.60;99.90;;;;;;5036952;28;20558;-57
2023/10/24 02:26:48;;;;;;;5.43;3.70;;;12.70;99.90;;;;;;5037059;28;20455;-58
2023/10/24 02:29:16;;;;;;;6.43;3.37;;;12.60;99.90;;;;;;5037120;28;20757;-57
2023/10/24 02:31:44;;;;;;;4.83;3.33;;;12.60;99.90;;;;;;5037356;28;20499;-56
2023/10/24 02:34:11;;;;;;;5.20;3.77;;;12.60;99.90;;;;;;5037322;28;20465;-57
2023/10/24 02:36:39;;;;;;;6.60;3.80;;;12.60;99.90;;;;;;5037180;28;20517;-58
2023/10/24 02:39:06;;;;;;;5.10;3.43;;;12.60;99.90;;;;;;5036984;28;20459;-57
2023/10/24 02:41:33;;;;;;;4.97;3.47;;;12.50;99.90;;;;;;5036820;28;20500;-57
2023/10/24 02:44:00;;;;;;;5.43;4.17;;;12.60;99.90;;;;;;5037043;28;20455;-58
2023/10/24 02:46:27;;;;;;;5.07;3.70;;;12.60;99.90;;;;;;5037117;28;20743;-57
2023/10/24 02:48:56;;;;;;;4.53;3.70;;;12.60;99.90;;;;;;5036704;28;20485;-57
2023/10/24 02:51:24;;;;;;;7.97;3.50;;;12.60;99.90;;;;;;5036906;28;20557;-57
2023/10/24 02:53:51;;;;;;;5.87;3.80;;;12.60;99.90;;;;;;5036869;28;20952;-56
2023/10/24 02:56:18;;;;;;;3.93;3.53;;;12.60;99.90;;;;;;5036698;28;20502;-58
2023/10/24 02:58:45;;;;;;;9.17;3.70;;;12.50;99.90;;;;;;5036145;28;20460;-57
2023/10/24 03:01:12;;;;;;;3.00;2.57;;;12.60;99.90;;;;;;5036104;28;20740;-58
2023/10/24 03:03:40;;;;;;;4.53;3.17;;;12.60;99.90;;;;;;5035973;28;20455;-58
2023/10/24 03:06:16;;;;;;;6.03;3.07;;;12.50;99.90;;;;;;5036235;28;20459;-57
2023/10/24 03:08:43;;;;;;;6.77;3.47;;;12.60;99.90;;;;;;5036024;28;21195;-57
2023/10/24 03:11:11;;;;;;;5.30;3.07;;;12.60;99.90;;;;;;5036241;28;20764;-58
2023/10/24 03:13:38;;;;;;;7.60;3.00;;;12.50;99.90;;;;;;5035817;28;20562;-58
2023/10/24 03:16:06;;;;;;;7.07;3.23;;;12.50;99.90;;;;;;5035870;28;20466;-57
2023/10/24 03:18:35;;;;;;;4.20;3.00;;;12.60;99.90;;;;;;5036326;28;20456;-55
2023/10/24 03:21:04;;;;;;;6.23;2.63;;;12.50;99.90;;;;;;5034840;28;20463;-56
2023/10/24 03:23:33;;;;;;;6.40;2.70;;;12.60;99.90;;;;;;5033259;28;20462;-58
2023/10/24 03:26:00;;;;;;;6.00;2.77;;;12.60;99.90;;;;;;5034906;28;20459;-58
2023/10/24 03:28:27;;;;;;;4.50;2.50;;;12.60;99.90;;;;;;5034989;28;20459;-57
2023/10/24 03:31:03;;;;;;;3.00;2.60;;;12.60;99.90;;;;;;5034595;28;20459;-58
2023/10/24 03:33:31;;;;;;;4.50;2.50;;;12.60;99.90;;;;;;5034738;28;20455;-58
2023/10/24 03:35:58;;;;;;;2.93;2.57;;;12.60;99.90;;;;;;5036316;28;20506;-57
2023/10/24 03:38:26;;;;;;;2.80;2.50;;;12.60;99.90;;;;;;5036283;28;20566;-58
2023/10/24 03:40:55;;;;;;;2.93;2.53;;;12.70;99.90;;;;;;5036005;28;20814;-57
2023/10/24 03:43:23;;;;;;;4.43;2.57;;;12.70;99.90;;;;;;5036178;28;20758;-58
2023/10/24 03:45:50;;;;;;;3.40;2.80;;;12.70;99.90;;;;;;5036070;28;20514;-58
2023/10/24 03:48:17;;;;;;;2.93;2.40;;;12.70;99.90;;;;;;5036017;28;20466;-57
2023/10/24 03:50:44;;;;;;;4.30;3.00;;;12.70;99.90;;;;;;5035478;28;20477;-57
2023/10/24 03:53:12;;;;;;;3.90;2.50;;;12.70;99.90;;;;;;5036055;28;20622;-57
2023/10/24 03:55:39;;;;;;;4.40;2.90;;;12.70;99.90;;;;;;5035965;28;20566;-57
2023/10/24 03:58:07;;;;;;;4.00;2.77;;;12.60;99.90;;;;;;5036156;28;20582;-57
2023/10/24 04:00:34;;;;;;;2.73;2.20;;;12.70;99.90;;;;;;5035233;28;20466;-57
2023/10/24 04:03:02;;;;;;;4.40;2.60;;;12.60;99.90;;;;;;5035743;28;20747;-60
2023/10/24 04:05:33;;;;;;;3.27;2.60;;;12.60;99.90;;;;;;5035517;28;20464;-61
2023/10/24 04:08:01;;;;;;;5.13;2.83;;;12.60;99.90;;;;;;5035592;28;20927;-61
2023/10/24 04:10:28;;;;;;;3.50;2.77;;;12.60;99.90;;;;;;5032109;28;20494;-59
2023/10/24 04:12:55;;;;;;;4.00;2.40;;;12.60;99.90;;;;;;5035263;28;20675;-61
2023/10/24 04:15:24;;;;;;;4.77;2.80;;;12.60;99.90;;;;;;5033726;28;20458;-61
2023/10/24 04:17:52;;;;;;;4.40;2.60;;;12.60;99.90;;;;;;5035857;28;20495;-61
2023/10/24 04:20:19;;;;;;;3.10;2.47;;;12.50;99.90;;;;;;5035683;28;20434;-60
2023/10/24 04:22:48;;;;;;;5.93;2.93;;;12.60;99.90;;;;;;5035223;28;20459;-60
2023/10/24 04:25:15;;;;;;;4.33;2.37;;;12.60;99.90;;;;;;5035297;28;20508;-61
2023/10/24 04:27:42;;;;;;;4.20;2.13;;;12.60;99.90;;;;;;5034887;28;20459;-61
2023/10/24 04:30:11;;;;;;;4.30;2.70;;;12.50;99.90;;;;;;5033524;28;20442;-61
2023/10/24 04:32:39;;;;;;;3.30;2.37;;;12.50;99.90;;;;;;5024828;28;20475;-61
2023/10/24 04:35:07;;;;;;;3.97;2.83;;;12.50;99.90;;;;;;5022830;28;20483;-60
2023/10/24 04:37:34;;;;;;;4.50;2.30;;;12.50;99.90;;;;;;5031669;28;20547;-60
2023/10/24 04:40:01;;;;;;;3.50;2.23;;;12.50;99.90;;;;;;5035350;28;20497;-60
2023/10/24 04:42:28;;;;;;;4.00;2.47;;;12.50;99.90;;;;;;5034993;28;20554;-60
2023/10/24 04:44:56;;;;;;;3.00;2.50;;;12.50;99.90;;;;;;5034263;28;20461;-60
2023/10/24 04:47:23;;;;;;;6.50;2.40;;;12.50;99.90;;;;;;5035023;28;20857;-60
2023/10/24 04:49:51;;;;;;;3.27;2.23;;;12.50;99.90;;;;;;5035129;28;20455;-60
2023/10/24 04:52:21;;;;;;;5.67;2.27;;;12.50;99.90;;;;;;5034729;28;20456;-60
2023/10/24 04:54:48;;;;;;;3.17;2.20;;;12.50;99.90;;;;;;5034009;28;20763;-61
2023/10/24 04:57:15;;;;;;;4.50;2.60;;;12.50;99.90;;;;;;5033595;28;20491;-61
2023/10/24 04:59:43;;;;;;;3.00;2.40;;;12.50;99.90;;;;;;5033147;28;20492;-61
2023/10/24 05:02:10;;;;;;;3.40;2.13;;;12.50;99.90;;;;;;5033179;28;20561;-61
2023/10/24 05:04:37;;;;;;;4.83;2.40;;;12.50;99.90;;;;;;5033876;28;20554;-60
2023/10/24 05:07:06;;;;;;;2.97;2.33;;;12.50;99.90;;;;;;5033306;28;20483;-60
2023/10/24 05:09:33;;;;;;;3.47;2.40;;;12.50;99.90;;;;;;5033095;28;20506;-60
2023/10/24 05:12:00;;;;;;;3.17;2.40;;;12.50;99.90;;;;;;5031443;28;20791;-61
2023/10/24 05:14:42;;;;;;;3.93;1.93;;;12.50;99.90;;;;;;5009014;28;20514;-60
2023/10/24 05:17:10;;;;;;;3.07;2.20;;;12.40;99.90;;;;;;5034062;28;21018;-61
2023/10/24 05:19:37;;;;;;;2.97;1.83;;;12.40;99.90;;;;;;5034077;28;20456;-61
2023/10/24 05:22:05;;;;;;;3.10;1.90;;;12.40;99.90;;;;;;5034567;28;20459;-61
2023/10/24 05:24:33;;;;;;;4.10;2.30;;;12.30;99.90;;;;;;5034553;28;20466;-61
2023/10/24 05:27:00;;;;;;;3.17;1.80;;;12.30;99.90;;;;;;5034045;28;20542;-61
2023/10/24 05:29:27;;;;;;;2.90;1.87;;;12.30;1.00;;;;;;5034019;28;20516;-61
2023/10/24 05:31:55;;;;;;;7.00;2.33;;;12.30;1.00;;;;;;5032379;28;20467;-61
2023/10/24 05:34:22;;;;;;;3.43;2.17;;;12.20;1.00;;;;;;5032760;28;20855;-61
2023/10/24 05:36:51;;;;;;;3.90;2.33;;;12.20;1.00;;;;;;5030145;28;20482;-61
2023/10/24 05:39:20;;;;;;;3.00;2.20;;;12.20;1.00;;;;;;5022505;28;20471;-65
2023/10/24 05:41:47;;;;;;;2.90;2.33;;;12.20;1.00;;;;;;5031446;28;20459;-65
2023/10/24 05:44:15;;;;;;;3.03;2.33;;;12.10;1.00;;;;;;5033522;28;20891;-66
2023/10/24 05:46:42;;;;;;;3.93;2.20;;;12.10;1.00;;;;;;5032826;28;20438;-65
2023/10/24 05:49:09;;;;;;;4.50;2.23;;;12.10;1.00;;;;;;5033138;28;20491;-65
2023/10/24 05:51:36;;;;;;;6.10;2.00;;;12.10;1.00;;;;;;5033598;28;20760;-65
2023/10/24 05:54:03;;;;;;;2.83;2.37;;;12.10;1.00;;;;;;5033787;28;20460;-65
2023/10/24 05:56:33;;;;;;;2.80;2.20;;;12.10;1.00;;;;;;5034257;28;20720;-65
2023/10/24 05:59:00;;;;;;;2.90;1.83;;;12.00;1.00;;;;;;5033732;28;20491;-65
2023/10/24 06:01:28;;;;;;;3.00;2.00;;;12.00;99.90;;;;;;5034053;28;20789;-65
2023/10/24 06:03:55;;;;;;;2.70;1.90;;;12.00;99.90;;;;;;5035004;27;20475;-65
2023/10/24 06:06:22;;;;;;;3.60;2.57;;;11.90;99.90;;;;;;5034131;28;20463;-65
2023/10/24 06:08:50;;;;;;;4.03;2.50;;;11.90;99.90;;;;;;5032092;28;20955;-65
2023/10/24 06:11:17;;;;;;;5.20;3.20;;;11.90;1.00;;;;;;5032074;28;20485;-65
2023/10/24 06:13:46;;;;;;;3.10;2.80;;;11.90;1.00;;;;;;5033654;28;20880;-65
2023/10/24 06:16:16;;;;;;;3.20;2.87;;;11.90;99.90;;;;;;5034002;28;20466;-65
2023/10/24 06:18:43;;;;;;;3.73;3.07;;;11.90;99.90;;;;;;5032574;28;20466;-64
2023/10/24 06:21:12;;;;;;;3.90;2.60;;;11.90;99.90;;;;;;5033454;28;20785;-65
2023/10/24 06:23:39;;;;;;;4.97;2.80;;;11.90;99.90;;;;;;5033179;28;20472;-65
2023/10/24 06:26:13;;;;;;;3.10;2.80;;;11.90;99.90;;;;;;5033433;28;20463;-65
2023/10/24 06:28:41;;;;;;;4.00;2.83;;;11.90;99.90;;;;;;5033557;28;20534;-65
2023/10/24 06:31:09;;;;;;;3.50;2.80;;;11.90;99.90;;;;;;5033436;28;20502;-65
2023/10/24 06:33:37;;;;;;;3.57;3.03;;;12.00;99.90;;;;;;5032966;28;20481;-65
2023/10/24 06:36:05;;;;;;;4.80;2.93;;;12.00;99.90;;;;;;5033386;28;20557;-65
2023/10/24 06:38:32;;;;;;;4.77;3.37;;;12.00;99.90;;;;;;5033309;28;20491;-65
2023/10/24 06:41:00;;;;;;;4.57;2.57;;;12.00;99.90;;;;;;5033110;28;20459;-65
2023/10/24 06:43:27;;;;;;;7.30;2.70;;;12.00;99.90;;;;;;5039723;28;20516;-64
2023/10/24 06:45:55;;;;;;;2.90;2.40;;;12.00;99.90;;;;;;5031633;28;20460;-65
2023/10/24 06:48:23;;;;;;;3.10;2.37;;;12.00;99.90;;;;;;5031560;28;20458;-64
2023/10/24 06:50:50;;;;;;;3.10;2.60;;;12.00;99.90;;;;;;5031470;28;20546;-64
2023/10/24 06:53:18;;;;;;;6.53;2.70;;;12.00;99.90;;;;;;5031527;28;20550;-64
2023/10/24 06:55:45;;;;;;;4.37;2.50;;;12.00;99.90;;;;;;5030220;28;20759;-65
2023/10/24 06:58:12;;;;;;;5.50;2.70;;;12.00;99.90;;;;;;5033942;28;20479;-65
2023/10/24 07:00:39;;;;;;;3.80;2.50;;;12.10;99.90;;;;;;5034573;28;20838;-63
2023/10/24 07:03:08;;;;;;;2.87;2.20;;;12.00;99.90;;;;;;5033375;28;20463;-64
2023/10/24 07:05:36;;;;;;;3.80;2.93;;;12.00;99.90;;;;;;5032403;28;20460;-64
2023/10/24 07:08:04;;;;;;;4.87;3.00;;;12.10;99.90;;;;;;5034035;28;20487;-64
2023/10/24 07:10:33;;;;;;;4.57;3.10;;;12.10;99.90;;;;;;5033646;28;20538;-64
2023/10/24 07:13:00;;;;;;;3.43;2.90;;;12.10;99.90;;;;;;5033312;28;20655;-65
2023/10/24 07:15:28;;;;;;;3.50;3.20;;;12.10;99.90;;;;;;5032714;28;20463;-64
2023/10/24 07:17:55;;;;;;;6.13;3.33;;;12.10;99.90;;;;;;5033639;28;20491;-64
2023/10/24 07:20:22;;;;;;;5.07;3.37;;;12.10;1.00;;;;;;5034202;28;20565;-64
2023/10/24 07:22:51;;;;;;;5.10;3.77;;;12.10;1.00;;;;;;5033715;28;20516;-64
2023/10/24 07:25:18;;;;;;;3.83;3.33;;;12.10;1.00;;;;;;5035605;28;20558;-64
2023/10/24 07:27:46;;;;;;;4.70;4.30;;;12.20;1.00;;;;;;5035348;28;20538;-64
2023/10/24 07:30:13;;;;;;;5.10;3.80;;;12.20;1.00;;;;;;5035839;28;20463;-64
2023/10/24 07:32:40;;;;;;;5.67;3.70;;;12.20;1.00;;;;;;5035893;28;20553;-64
2023/10/24 07:35:08;;;;;;;3.97;3.57;;;12.30;1.00;;;;;;5034661;28;20495;-64
2023/10/24 07:37:36;;;;;;;4.57;2.90;;;12.20;1.00;;;;;;5035257;28;20932;-64
2023/10/24 07:40:06;;;;;;;4.57;3.10;;;12.20;1.00;;;;;;5036460;28;20463;-64
2023/10/24 07:42:33;;;;;;;4.23;2.97;;;12.30;1.00;;;;;;5033223;28;20464;-64
2023/10/24 07:45:01;;;;;;;4.90;3.43;;;12.30;1.00;;;;;;5033816;28;20918;-64
2023/10/24 07:47:28;;;;;;;3.30;2.90;;;12.40;1.00;;;;;;5035708;28;20549;-64
2023/10/24 07:49:56;;;;;;;2.90;2.60;;;12.40;1.00;;;;;;5035881;28;20456;-64
2023/10/24 07:52:23;;;;;;;5.30;2.90;;;12.40;99.90;;;;;;5032253;28;20478;-64
2023/10/24 07:54:51;;;;;;;4.70;3.07;;;12.40;99.90;;;;;;5031952;28;20539;-64
2023/10/24 07:57:19;;;;;;;3.77;2.43;;;12.40;99.90;;;;;;5035423;28;20875;-64
2023/10/24 07:59:47;;;;;;;3.90;2.47;;;12.40;99.90;;;;;;5035562;28;20478;-64
2023/10/24 08:02:14;;;;;;;3.30;2.47;;;12.40;99.90;;;;;;5035846;28;20452;-64
2023/10/24 08:04:41;;;;;;;2.63;2.00;;;12.40;99.90;;;;;;5035757;28;20473;-63
2023/10/24 08:07:09;;;;;;;3.43;2.50;;;12.40;14.20;;;;;;5035008;28;20479;-63
2023/10/24 08:09:36;;;;;;;4.43;2.30;;;12.40;1.00;;;;;;5034533;28;20523;-64
2023/10/24 08:12:04;;;;;;;3.70;2.40;;;12.50;21.40;;;;;;5035614;28;20517;-64
2023/10/24 08:14:32;;;;;;;3.73;2.37;;;12.50;1.00;;;;;;5034857;28;20505;-65
2023/10/24 08:17:00;;;;;;;5.27;2.60;;;12.50;1.00;;;;;;5035276;28;20455;-63
2023/10/24 08:19:27;;;;;;;4.50;2.33;;;12.40;1.00;;;;;;5035139;28;20501;-63
2023/10/24 08:21:55;;;;;;;3.07;2.30;;;12.50;1.00;;;;;;5034833;28;20549;-63
2023/10/24 08:24:23;;;;;;;6.57;3.07;;;12.50;1.00;;;;;;5035304;28;20494;-63
2023/10/24 08:26:50;;;;;;;3.50;2.20;;;12.50;1.00;;;;;;5035053;28;20758;-63
2023/10/24 08:29:17;;;;;;;3.90;2.20;;;12.50;1.00;;;;;;5035271;28;20456;-63
2023/10/24 08:31:48;;;;;;;4.33;2.57;;;12.50;1.00;;;;;;5035064;28;20459;-63
2023/10/24 08:34:15;;;;;;;3.60;2.77;;;12.50;1.00;;;;;;5035201;28;20459;-63
2023/10/24 08:36:43;;;;;;;3.27;2.60;;;12.60;1.00;;;;;;5034742;28;20506;-63
2023/10/24 08:39:11;;;;;;;4.63;2.67;;;12.60;1.00;;;;;;5035147;28;20915;-63
2023/10/24 08:41:38;;;;;;;2.97;2.33;;;12.60;1.00;;;;;;5035145;28;20487;-63
2023/10/24 08:44:06;;;;;;;3.13;2.70;;;12.60;1.00;;;;;;5034609;28;20467;-63
2023/10/24 08:46:34;;;;;;;3.70;3.20;;;12.60;1.00;;;;;;5035154;28;20516;-62
2023/10/24 08:49:04;;;;;;;5.40;2.47;;;12.60;1.00;;;;;;5035015;28;20495;-63
2023/10/24 08:51:32;;;;;;;4.23;2.23;;;12.70;1.00;;;;;;5034140;28;20463;-62
2023/10/24 08:54:00;;;;;;;3.80;2.47;;;12.70;1.00;;;;;;5038179;27;20549;-63
2023/10/24 08:56:28;;;;;;;4.73;2.53;;;12.70;1.00;;;;;;5034681;28;20914;-63
2023/10/24 08:58:58;;;;;;;3.93;2.90;;;12.80;1.00;;;;;;5033996;28;20495;-63
2023/10/24 09:01:28;;;;;;;3.60;2.60;;;12.80;1.00;;;;;;5034437;28;20463;-63
2023/10/24 09:03:56;;;;;;;3.13;2.47;;;12.80;1.00;;;;;;5034911;28;20490;-63
2023/10/24 09:06:25;;;;;;;3.93;2.60;;;12.80;1.00;;;;;;5034490;28;20465;-63
2023/10/24 09:08:53;;;;;;;4.40;2.70;;;12.80;1.00;;;;;;5034433;28;20479;-62
2023/10/24 09:11:20;;;;;;;4.43;3.10;;;12.90;1.00;;;;;;5033747;28;20918;-62
2023/10/24 09:13:47;;;;;;;3.63;2.27;;;13.00;99.90;;;;;;5033178;28;20464;-62
2023/10/24 09:16:15;;;;;;;3.37;2.03;;;13.00;93.20;;;;;;5033414;28;20459;-63
2023/10/24 09:18:43;;;;;;;5.90;2.70;;;13.00;2.70;;;;;;5032579;28;20466;-62
2023/10/24 09:21:10;;;;;;;3.20;2.40;;;13.10;94.10;;;;;;5032552;28;20518;-63
2023/10/24 09:23:39;;;;;;;4.63;2.60;;;13.10;1.00;;;;;;5032281;28;20495;-62
2023/10/24 09:26:11;;;;;;;3.90;2.50;;;13.20;1.00;;;;;;5033566;27;20516;-62
2023/10/24 09:28:38;;;;;;;3.70;2.50;;;13.20;1.00;;;;;;5034438;28;20460;-62
2023/10/24 09:31:06;;;;;;;4.33;2.90;;;13.30;99.90;;;;;;5033970;28;20546;-62
2023/10/24 09:33:33;;;;;;;3.83;2.93;;;13.30;1.00;;;;;;5034556;28;20459;-62
2023/10/24 09:36:01;;;;;;;4.83;3.30;;;13.30;99.90;;;;;;5034417;28;20459;-62
2023/10/24 09:38:28;;;;;;;3.63;2.70;;;13.40;99.90;;;;;;5033717;28;20510;-62
2023/10/24 09:40:57;;;;;;;3.40;2.73;;;13.40;99.90;;;;;;5034049;28;20919;-62
2023/10/24 09:43:26;;;;;;;5.47;2.60;;;13.60;99.90;;;;;;5033721;28;20494;-62
2023/10/24 09:45:53;;;;;;;7.03;3.17;;;13.60;99.90;;;;;;5033670;28;20549;-62
2023/10/24 09:48:22;;;;;;;3.40;2.47;;;13.70;99.90;;;;;;5034408;28;20455;-62
2023/10/24 09:50:51;;;;;;;3.50;2.53;;;13.90;99.90;;;;;;5034245;28;20763;-62
2023/10/24 09:53:19;;;;;;;3.53;2.60;;;14.00;99.90;;;;;;5033668;28;20880;-62
2023/10/24 09:55:49;;;;;;;4.40;2.73;;;14.10;99.90;;;;;;5033975;28;20468;-62
2023/10/24 09:58:18;;;;;;;3.03;2.20;;;14.20;99.90;;;;;;5034379;28;20456;-62
2023/10/24 10:00:47;;;;;;;3.90;2.60;;;14.30;99.90;;;;;;5033660;28;20551;-62
2023/10/24 10:03:14;;;;;;;6.27;3.63;;;14.40;99.90;;;;;;5033928;28;20492;-62
2023/10/24 10:05:44;;;;;;;5.77;2.97;;;14.50;99.90;;;;;;5033680;28;20437;-62
2023/10/24 10:08:14;;;;;;;3.63;2.43;;;14.50;99.90;;;;;;5033713;28;20831;-62
2023/10/24 10:10:42;;;;;;;4.03;2.33;;;14.50;99.90;;;;;;5034320;28;20452;-61
2023/10/24 10:13:12;;;;;;;4.40;2.70;;;14.60;99.90;;;;;;5033308;28;20463;-61
2023/10/24 10:16:06;;;;;;;4.30;3.20;;;14.60;99.90;;;;;;5033001;28;20549;-61
2023/10/24 10:18:49;;;;;;;3.63;2.50;;;14.60;99.90;;;;;;5033786;28;20574;-61
2023/10/24 10:21:29;;;;;;;5.13;2.33;;;14.60;99.90;;;;;;5033680;28;20844;-61
2023/10/24 10:24:24;;;;;;;3.50;2.67;;;14.70;99.90;;;;;;5033044;28;20872;-61
2023/10/24 10:27:02;;;;;;;4.07;2.43;;;14.70;99.90;;;;;;5033384;28;20495;-62
2023/10/24 10:29:44;;;;;;;3.33;2.47;;;15.00;99.90;;;;;;5033432;28;20500;-60
2023/10/24 10:32:23;;;;;;;3.70;2.43;;;15.10;99.90;;;;;;5017407;28;20467;-61
2023/10/24 10:34:52;;;;;;;4.17;2.30;;;15.30;99.90;;;;;;5036576;28;20458;-61
2023/10/24 10:37:19;;;;;;;4.47;2.40;;;15.20;99.90;;;;;;5037015;28;20792;-60
2023/10/24 10:40:22;;;;;;;3.60;2.30;;;15.10;99.90;;;;;;5036800;28;20495;-60
2023/10/24 10:42:51;;;;;;;4.07;2.10;;;15.10;99.90;;;;;;5036512;28;20490;-60
2023/10/24 10:45:25;;;;;;;3.80;2.70;;;15.00;99.90;;;;;;5036894;28;20549;-61
2023/10/24 10:47:56;;;;;;;5.00;2.73;;;15.10;99.90;;;;;;5036611;28;20545;-61
2023/10/24 10:50:25;;;;;;;4.23;2.60;;;15.10;99.90;;;;;;5036904;28;20461;-61
2023/10/24 10:53:14;;;;;;;4.10;2.40;;;14.90;99.90;;;;;;5036046;28;20459;-60
2023/10/24 10:55:59;;;;;;;3.83;3.00;;;14.80;99.90;;;;;;5036553;28;20455;-60
2023/10/24 10:58:39;;;;;;;3.57;2.50;;;14.80;99.90;;;;;;5039966;27;20464;-60
2023/10/24 11:01:14;;;;;;;3.07;2.40;;;14.80;99.90;;;;;;5034876;28;20466;-60
2023/10/24 11:03:46;;;;;;;3.60;2.40;;;14.90;99.90;;;;;;5035114;28;20978;-59
2023/10/24 11:06:15;;;;;;;5.70;2.30;;;15.00;99.90;;;;;;5035986;28;20751;-60
2023/10/24 11:08:44;;;;;;;3.23;2.10;;;15.00;99.90;;;;;;5035582;28;20449;-61
2023/10/24 11:11:12;;;;;;;2.80;2.40;;;15.10;99.90;;;;;;5035209;28;20459;-60
2023/10/24 11:13:43;;;;;;;2.70;2.00;;;15.10;99.90;;;;;;5036149;28;20837;-60
2023/10/24 11:16:12;;;;;;;3.00;2.50;;;15.40;99.90;;;;;;5036000;28;20455;-61
2023/10/24 11:18:41;;;;;;;3.03;2.30;;;15.80;99.90;;;;;;5035797;28;20458;-60
2023/10/24 11:21:12;;;;;;;2.90;2.20;;;15.90;99.90;;;;;;5035598;28;20475;-60
2023/10/24 11:23:42;;;;;;;4.00;3.23;;;15.80;99.90;;;;;;5036018;28;20546;-60
2023/10/24 11:26:10;;;;;;;2.70;2.17;;;15.90;99.90;;;;;;5036217;28;20463;-60
2023/10/24 11:28:38;;;;;;;2.60;2.00;;;15.90;99.90;;;;;;5036216;28;20463;-60
2023/10/24 11:31:26;;;;;;;3.20;2.40;;;15.80;99.90;;;;;;5035834;28;20463;-59
2023/10/24 11:33:54;;;;;;;3.63;2.50;;;15.90;99.90;;;;;;5036165;28;20467;-60
2023/10/24 11:36:22;;;;;;;3.20;2.57;;;15.90;99.90;;;;;;5036076;28;20605;-60
2023/10/24 11:38:51;;;;;;;2.70;2.20;;;15.70;99.90;;;;;;5035529;28;21002;-60
2023/10/24 11:41:18;;;;;;;3.13;2.40;;;15.60;99.90;;;;;;5035541;28;20463;-59
2023/10/24 11:43:48;;;;;;;3.40;2.43;;;15.40;99.90;;;;;;5034475;28;20516;-58
2023/10/24 11:46:15;;;;;;;4.93;3.37;;;15.40;99.90;;;;;;5035302;28;20516;-59
2023/10/24 11:48:42;;;;;;;5.70;2.80;;;15.40;99.90;;;;;;5034238;28;20516;-59
2023/10/24 11:51:10;;;;;;;2.67;2.20;;;15.30;99.90;;;;;;5050894;27;20557;-58
2023/10/24 11:53:39;;;;;;;4.73;2.67;;;15.10;99.90;;;;;;5069432;27;20498;-58
2023/10/24 11:56:08;;;;;;;3.07;2.57;;;15.00;99.90;;;;;;5032919;28;20451;-58
2023/10/24 11:58:36;;;;;;;3.27;2.57;;;15.00;99.90;;;;;;5034122;28;20499;-58
2023/10/24 12:01:03;;;;;;;3.43;2.17;;;15.00;99.90;;;;;;5034184;28;20441;-58
2023/10/24 12:03:45;;;;;;;4.00;2.53;;;15.00;99.90;;;;;;5034941;28;20535;-58
2023/10/24 12:06:13;;;;;;;3.97;2.60;;;14.90;99.90;;;;;;5035543;28;20460;-58
2023/10/24 12:08:44;;;;;;;3.10;2.10;;;14.80;99.90;;;;;;5034766;28;20927;-58
2023/10/24 12:11:12;;;;;;;3.07;2.40;;;14.80;99.90;;;;;;5034848;28;20460;-58
2023/10/24 12:13:39;;;;;;;5.57;2.80;;;14.70;99.90;;;;;;5035636;28;20552;-58
2023/10/24 12:16:08;;;;;;;3.57;2.30;;;14.60;99.90;;;;;;5035883;28;20949;-58
2023/10/24 12:18:38;;;;;;;5.90;2.60;;;14.70;99.90;;;;;;5033699;28;20810;-58
2023/10/24 12:21:07;;;;;;;3.53;2.47;;;14.60;99.90;;;;;;5034981;28;20931;-58
2023/10/24 12:23:35;;;;;;;4.30;2.40;;;14.50;99.90;;;;;;5035354;28;20512;-58
2023/10/24 12:26:05;;;;;;;5.60;2.30;;;14.40;99.90;;;;;;5035322;28;20459;-58
2023/10/24 12:28:34;;;;;;;4.47;2.40;;;14.20;1.00;;;;;;5035640;28;20520;-59
2023/10/24 12:31:01;;;;;;;3.13;2.33;;;13.90;99.90;;;;;;5035595;28;20455;-61
2023/10/24 12:33:29;;;;;;;3.40;3.00;;;13.70;99.90;;;;;;5035334;28;20795;-62
2023/10/24 12:35:57;;;;;;;5.37;3.00;;;13.50;1.00;;;;;;5035676;28;20460;-64
2023/10/24 12:38:24;;;;;;;4.67;3.20;;;13.40;1.00;;;;;;5035418;28;20456;-65
2023/10/24 12:40:52;;;;;;;3.67;2.90;;;13.40;1.00;;;;;;5034872;28;20590;-63
2023/10/24 12:43:21;;;;;;;5.67;3.27;;;13.30;35.30;;;;;;5035025;28;20467;-65
2023/10/24 12:45:48;;;;;;;4.53;2.50;;;13.20;99.90;;;;;;5035241;28;20508;-66
2023/10/24 12:48:16;;;;;;;6.63;2.97;;;13.20;99.90;;;;;;5035034;28;20557;-65
2023/10/24 12:50:43;;;;;;;4.40;2.47;;;13.20;99.90;;;;;;5034742;28;20919;-66
2023/10/24 12:53:11;;;;;;;3.70;3.30;;;13.10;99.90;;;;;;5034704;28;20517;-66
2023/10/24 12:55:38;;;;;;;4.57;3.27;;;13.10;99.90;;;;;;5034477;28;20914;-66